CRW8 weather

Public forecast

Using degrees Celsius for public forecast. Weather courtesy of forecast.io.

Closest aviation weather report (METAR) to Redwater Health Centre Heliport

Closest report is Edmonton (CFB Namao) Heliport, 20.9 nm (38.7 km) SW. Retrieved 2020/08/12 18:00 UTC (9 minutes ago):

CYED 121800Z 27008G17KT 12SM SCT035 SCT210 14/06 A2974 RMK CU3CI1 DA3010FT SLP076

Closest aviation forecast (TAF) to Redwater Health Centre Heliport

Closest forecast is Edmonton (CFB Namao) Heliport, 20.9 nm (38.7 km) SW. Retrieved 2020/08/12 18:36 UTC (0 seconds ago):

TAF TAF CYED 121734Z 1218/1306 28008G18KT P6SM FEW020 SCT050 BECMG 1304/1306 VRB03KT RMK NXT FCST BY 130000Z